Time;durP1;ratioP1;P1;durP2;ratioP2;P2;SDS_P1;SDS_P2;PMS_P1;PMS_P2;Temp;Humidity;BMP_temperature;BMP_pressure;BME280_temperature;BME280_humidity;BME280_pressure;Samples;Min_cycle;Max_cycle;Signal;HPM_P1;HPM_P2
2023/10/18 00:00:59;;;;;;;25.25;13.48;;;7.70;78.70;;;;;;9162791;19;20378;-73
2023/10/18 00:04:07;;;;;;;23.88;11.43;;;7.70;79.70;;;;;;9165257;19;20010;-72
2023/10/18 00:07:15;;;;;;;24.83;12.68;;;7.70;79.40;;;;;;9159216;19;20529;-72
2023/10/18 00:10:27;;;;;;;23.80;12.73;;;7.70;78.30;;;;;;9164134;19;20021;-72
2023/10/18 00:13:33;;;;;;;24.05;12.50;;;7.60;78.20;;;;;;9162027;19;20529;-72
2023/10/18 00:16:41;;;;;;;25.70;11.98;;;7.60;78.50;;;;;;9161413;19;20010;-70
2023/10/18 00:19:46;;;;;;;27.52;13.60;;;7.60;79.20;;;;;;9161498;19;20447;-73
2023/10/18 00:22:54;;;;;;;27.40;12.77;;;7.60;79.30;;;;;;9161142;19;20019;-72
2023/10/18 00:26:06;;;;;;;29.25;13.82;;;7.70;80.80;;;;;;9169316;19;20016;-72
2023/10/18 00:29:14;;;;;;;24.63;12.13;;;8.50;81.20;;;;;;9165436;19;20015;-72
2023/10/18 00:32:20;;;;;;;24.73;13.65;;;7.60;78.60;;;;;;9169480;19;20086;-71
2023/10/18 00:35:32;;;;;;;34.13;14.00;;;7.60;80.70;;;;;;9169466;19;20376;-70
2023/10/18 00:38:38;;;;;;;25.77;13.80;;;7.70;81.90;;;;;;9170870;19;20480;-71
2023/10/18 00:41:52;;;;;;;26.40;13.45;;;7.70;82.70;;;;;;9167755;19;20027;-72
2023/10/18 00:45:02;;;;;;;25.52;13.70;;;8.00;81.90;;;;;;9169473;19;20021;-74
2023/10/18 00:48:11;;;;;;;30.10;15.02;;;7.50;79.40;;;;;;9168135;19;20013;-74
2023/10/18 00:51:19;;;;;;;28.20;14.73;;;7.50;79.60;;;;;;9173244;19;20136;-72
2023/10/18 00:54:27;;;;;;;25.17;14.15;;;7.40;79.50;;;;;;9172562;19;20016;-72
2023/10/18 00:57:37;;;;;;;29.35;14.32;;;7.40;79.80;;;;;;9172827;19;20022;-69
2023/10/18 01:00:56;;;;;;;30.65;14.77;;;7.50;80.30;;;;;;9169566;19;20018;-72
2023/10/18 01:04:04;;;;;;;24.70;13.43;;;7.40;80.60;;;;;;9170598;19;20021;-70
2023/10/18 01:07:15;;;;;;;32.58;15.60;;;7.50;81.50;;;;;;9168926;19;20022;-72
2023/10/18 01:10:23;;;;;;;26.25;13.48;;;8.00;79.70;;;;;;9170272;19;20021;-73
2023/10/18 01:13:36;;;;;;;25.10;14.23;;;7.30;79.00;;;;;;9170320;19;20698;-72
2023/10/18 01:16:41;;;;;;;28.48;14.52;;;7.30;79.30;;;;;;9170129;19;20040;-69
2023/10/18 01:19:49;;;;;;;31.42;14.20;;;7.30;79.10;;;;;;9173503;19;20014;-74
2023/10/18 01:22:55;;;;;;;27.63;14.93;;;7.20;78.70;;;;;;9172484;19;20030;-71
2023/10/18 01:26:05;;;;;;;29.70;15.23;;;7.30;79.00;;;;;;9168532;19;20018;-71
2023/10/18 01:29:11;;;;;;;30.33;14.50;;;7.20;78.90;;;;;;9169088;19;20010;-69
2023/10/18 01:32:18;;;;;;;28.48;14.05;;;7.20;79.20;;;;;;9167080;19;20014;-71
2023/10/18 01:35:24;;;;;;;30.98;16.15;;;7.20;79.10;;;;;;9167282;19;20990;-70
2023/10/18 01:38:32;;;;;;;31.77;15.43;;;7.30;79.30;;;;;;9170626;19;20018;-71
2023/10/18 01:41:41;;;;;;;32.90;14.90;;;7.20;79.40;;;;;;9163615;19;20034;-71
2023/10/18 01:44:52;;;;;;;33.00;15.98;;;7.10;79.40;;;;;;9169372;19;20058;-73
2023/10/18 01:47:57;;;;;;;31.08;16.63;;;7.10;79.80;;;;;;9167829;19;20089;-71
2023/10/18 01:51:05;;;;;;;32.60;15.52;;;7.20;80.20;;;;;;9167801;19;20071;-71
2023/10/18 01:54:12;;;;;;;32.45;16.17;;;7.10;80.60;;;;;;9168320;19;20590;-72
2023/10/18 01:57:25;;;;;;;34.70;15.75;;;7.20;81.90;;;;;;9167106;19;20018;-71
2023/10/18 02:00:34;;;;;;;35.03;16.88;;;7.30;82.90;;;;;;9169555;19;20014;-75
2023/10/18 02:03:44;;;;;;;31.37;15.83;;;7.20;86.00;;;;;;9166541;19;20052;-72
2023/10/18 02:06:50;;;;;;;30.35;15.57;;;7.10;81.50;;;;;;9165939;19;20534;-73
2023/10/18 02:10:00;;;;;;;32.63;15.93;;;7.10;81.20;;;;;;9166292;19;20022;-71
2023/10/18 02:13:10;;;;;;;33.83;15.98;;;7.10;81.50;;;;;;9168760;19;20478;-73
2023/10/18 02:16:19;;;;;;;33.20;17.38;;;7.00;81.80;;;;;;9167250;19;20368;-74
2023/10/18 02:19:27;;;;;;;35.28;15.88;;;7.00;81.60;;;;;;9165397;19;20027;-71
2023/10/18 02:22:37;;;;;;;33.45;16.27;;;7.10;81.60;;;;;;9166119;19;20780;-71
2023/10/18 02:25:45;;;;;;;33.35;16.77;;;7.10;82.40;;;;;;9169420;19;20583;-72
2023/10/18 02:28:56;;;;;;;35.80;17.27;;;7.10;82.50;;;;;;9163574;19;20014;-73
2023/10/18 02:32:04;;;;;;;37.80;18.60;;;7.10;83.30;;;;;;9167341;19;20372;-72
2023/10/18 02:35:16;;;;;;;37.00;17.45;;;7.10;84.00;;;;;;9165420;19;20037;-69
2023/10/18 02:38:21;;;;;;;32.75;16.17;;;7.70;87.70;;;;;;9167553;19;20094;-74
2023/10/18 02:41:29;;;;;;;33.95;16.27;;;6.60;85.80;;;;;;9160329;19;20014;-71
2023/10/18 02:44:37;;;;;;;34.35;16.60;;;7.10;85.10;;;;;;9167216;19;20068;-72
2023/10/18 02:47:45;;;;;;;32.30;15.65;;;7.10;85.80;;;;;;9165665;19;20025;-73
2023/10/18 02:50:53;;;;;;;37.58;16.77;;;7.00;83.80;;;;;;9166806;19;20495;-73
2023/10/18 02:54:07;;;;;;;36.78;17.38;;;7.00;83.10;;;;;;9167004;19;20025;-73
2023/10/18 02:57:13;;;;;;;37.38;17.42;;;7.00;83.10;;;;;;9163570;19;20457;-71
2023/10/18 03:00:25;;;;;;;35.78;17.10;;;7.00;83.60;;;;;;9165554;19;20030;-73
2023/10/18 03:03:30;;;;;;;35.50;15.90;;;7.00;83.80;;;;;;9167614;19;20090;-74
2023/10/18 03:06:38;;;;;;;35.70;16.88;;;7.00;86.20;;;;;;9163521;19;20022;-73
2023/10/18 03:09:49;;;;;;;33.10;17.70;;;7.00;87.00;;;;;;9161463;19;20635;-73
2023/10/18 03:12:58;;;;;;;34.20;17.02;;;6.90;85.70;;;;;;9165877;19;20582;-71
2023/10/18 03:16:15;;;;;;;32.63;15.38;;;6.90;86.90;;;;;;9163710;19;20022;-73
2023/10/18 03:19:24;;;;;;;38.38;17.10;;;6.90;84.00;;;;;;9165533;19;20480;-71
2023/10/18 03:22:32;;;;;;;33.15;16.60;;;7.00;84.50;;;;;;9164751;19;20019;-73
2023/10/18 03:25:39;;;;;;;33.08;15.88;;;6.90;83.80;;;;;;9164903;19;20505;-72
2023/10/18 03:28:46;;;;;;;37.13;17.38;;;6.90;84.40;;;;;;9163564;19;20039;-71
2023/10/18 03:31:57;;;;;;;34.00;17.63;;;6.90;84.00;;;;;;9163123;19;20115;-71
2023/10/18 03:35:04;;;;;;;34.10;17.38;;;7.00;86.00;;;;;;9164666;19;20018;-73
2023/10/18 03:38:17;;;;;;;34.65;16.38;;;6.90;83.90;;;;;;9163326;19;20045;-74
2023/10/18 03:41:25;;;;;;;30.63;15.88;;;6.90;84.30;;;;;;9160866;19;20081;-72
2023/10/18 03:44:33;;;;;;;33.63;14.63;;;6.90;84.30;;;;;;9163093;19;20029;-72
2023/10/18 03:47:42;;;;;;;32.88;16.63;;;6.90;84.50;;;;;;9162894;19;20131;-71
2023/10/18 03:50:50;;;;;;;33.13;16.08;;;6.80;84.60;;;;;;9163146;19;20384;-73
2023/10/18 03:54:00;;;;;;;32.88;16.45;;;6.80;87.70;;;;;;9165441;19;20022;-72
2023/10/18 03:57:11;;;;;;;31.45;16.73;;;6.80;83.60;;;;;;9162521;19;20018;-74
2023/10/18 04:00:43;;;;;;;31.85;16.25;;;6.80;84.70;;;;;;9170186;19;20014;-72
2023/10/18 04:03:54;;;;;;;33.50;16.30;;;6.80;85.10;;;;;;9173745;19;20014;-71
2023/10/18 04:07:01;;;;;;;35.22;16.70;;;6.80;86.50;;;;;;9172181;19;20015;-72
2023/10/18 04:10:12;;;;;;;36.28;16.08;;;6.80;87.60;;;;;;9172371;19;20014;-71
2023/10/18 04:13:18;;;;;;;35.55;16.30;;;6.70;81.00;;;;;;9169469;19;20755;-73
2023/10/18 04:16:30;;;;;;;30.77;15.43;;;6.70;81.50;;;;;;9169884;19;20033;-70
2023/10/18 04:19:38;;;;;;;31.48;15.43;;;6.70;81.80;;;;;;9172763;19;20099;-71
2023/10/18 04:22:46;;;;;;;35.03;15.82;;;6.70;81.40;;;;;;9170869;19;20018;-70
2023/10/18 04:26:00;;;;;;;33.28;17.63;;;6.70;81.40;;;;;;9170398;19;20014;-74
2023/10/18 04:29:10;;;;;;;34.40;16.70;;;6.70;81.40;;;;;;9168922;19;20023;-72
2023/10/18 04:32:18;;;;;;;29.40;15.90;;;6.70;81.80;;;;;;9169104;19;20483;-72
2023/10/18 04:35:29;;;;;;;33.70;15.75;;;6.70;82.00;;;;;;9172947;19;20025;-75
2023/10/18 04:38:37;;;;;;;26.42;14.82;;;6.70;82.70;;;;;;9171852;19;20031;-74
2023/10/18 04:41:45;;;;;;;32.05;16.67;;;6.80;83.30;;;;;;9166481;19;20029;-74
2023/10/18 04:44:56;;;;;;;30.05;15.02;;;6.70;83.10;;;;;;9170281;19;20405;-73
2023/10/18 04:48:06;;;;;;;37.35;15.70;;;6.70;83.30;;;;;;9170664;19;20018;-74
2023/10/18 04:51:26;;;;;;;32.60;16.17;;;6.70;83.00;;;;;;9170885;19;20028;-72
2023/10/18 04:54:41;;;;;;;34.55;15.27;;;6.70;83.30;;;;;;9171385;19;20022;-74
2023/10/18 04:57:46;;;;;;;29.77;15.80;;;6.70;84.50;;;;;;9169264;19;20491;-74
2023/10/18 05:00:57;;;;;;;31.98;15.70;;;6.60;81.60;;;;;;9168801;19;20013;-73
2023/10/18 05:04:18;;;;;;;29.90;15.98;;;6.60;80.30;;;;;;9170435;19;20022;-72
2023/10/18 05:07:41;;;;;;;30.38;16.90;;;6.60;80.00;;;;;;9168536;19;20522;-74
2023/10/18 05:10:49;;;;;;;31.05;14.93;;;6.50;80.00;;;;;;9170681;19;20470;-69
2023/10/18 05:13:57;;;;;;;30.60;15.60;;;6.50;80.10;;;;;;9169819;19;20021;-71
2023/10/18 05:17:04;;;;;;;31.60;16.08;;;6.50;79.80;;;;;;9170355;19;20014;-70
2023/10/18 05:20:22;;;;;;;33.75;16.30;;;6.50;80.00;;;;;;9170436;19;20369;-72
2023/10/18 05:23:32;;;;;;;34.85;17.67;;;6.50;80.10;;;;;;9170125;19;20590;-72
2023/10/18 05:26:41;;;;;;;31.60;16.45;;;6.50;80.00;;;;;;9170572;19;20021;-72
2023/10/18 05:29:52;;;;;;;33.88;16.13;;;6.50;80.00;;;;;;9168683;19;20044;-73
2023/10/18 05:33:03;;;;;;;32.35;16.88;;;6.40;80.10;;;;;;9168109;19;20018;-73
2023/10/18 05:36:29;;;;;;;31.20;15.75;;;6.50;80.20;;;;;;9169883;19;20037;-73
2023/10/18 05:39:49;;;;;;;30.88;15.50;;;6.40;80.10;;;;;;9170244;19;20508;-70
2023/10/18 05:42:51;;;;;;;35.80;17.17;;;6.40;80.10;;;;;;9162600;19;20052;-74
2023/10/18 05:46:04;;;;;;;28.90;15.38;;;6.40;80.10;;;;;;9167512;19;20014;-73
2023/10/18 05:49:23;;;;;;;32.88;15.70;;;6.40;80.70;;;;;;9166605;19;20006;-71
2023/10/18 05:52:48;;;;;;;41.22;16.45;;;6.40;80.40;;;;;;9169317;19;20377;-70
2023/10/18 05:55:57;;;;;;;38.17;17.13;;;6.40;80.40;;;;;;9167442;19;20086;-75
2023/10/18 05:59:27;;;;;;;30.15;15.98;;;6.40;80.70;;;;;;9168604;19;20488;-72
2023/10/18 06:02:33;;;;;;;29.88;14.88;;;6.40;81.10;;;;;;9167816;19;20544;-72
2023/10/18 06:05:41;;;;;;;30.25;14.75;;;6.40;81.20;;;;;;9165692;19;20071;-73
2023/10/18 06:08:47;;;;;;;28.42;14.75;;;6.40;81.10;;;;;;9166200;19;20025;-74
2023/10/18 06:11:57;;;;;;;32.50;16.08;;;6.50;80.70;;;;;;9166069;19;20006;-70
2023/10/18 06:15:10;;;;;;;35.35;16.25;;;6.40;81.00;;;;;;9165982;19;20022;-74
2023/10/18 06:18:26;;;;;;;32.00;15.43;;;6.40;81.00;;;;;;9162439;19;20231;-72
2023/10/18 06:21:36;;;;;;;26.88;14.75;;;6.40;80.70;;;;;;9163825;19;20112;-74
2023/10/18 06:24:48;;;;;;;29.60;15.88;;;6.40;80.80;;;;;;9161808;19;20487;-73
2023/10/18 06:27:59;;;;;;;27.38;15.35;;;6.40;80.90;;;;;;9163126;19;20022;-72
2023/10/18 06:31:08;;;;;;;32.78;15.23;;;6.30;81.00;;;;;;9160727;19;20037;-74
2023/10/18 06:34:17;;;;;;;26.80;13.55;;;6.40;81.20;;;;;;9161757;19;20010;-70
2023/10/18 06:37:40;;;;;;;31.00;15.20;;;6.40;81.40;;;;;;9162855;19;20015;-73
2023/10/18 06:40:50;;;;;;;28.17;14.60;;;6.40;81.50;;;;;;9160719;19;20025;-74
2023/10/18 06:44:18;;;;;;;32.35;15.15;;;6.40;80.80;;;;;;9162793;19;20014;-75
2023/10/18 06:47:30;;;;;;;27.35;14.20;;;6.50;81.30;;;;;;9164933;19;20440;-72
2023/10/18 06:50:40;;;;;;;26.88;13.77;;;6.40;81.10;;;;;;9163172;19;20022;-72
2023/10/18 06:53:53;;;;;;;30.90;13.57;;;6.50;81.60;;;;;;9164615;19;20027;-72
2023/10/18 06:57:15;;;;;;;29.13;14.90;;;6.50;81.70;;;;;;9163807;19;20397;-73
2023/10/18 07:00:30;;;;;;;30.48;14.65;;;6.50;81.70;;;;;;9164470;19;20560;-71
2023/10/18 07:03:38;;;;;;;31.25;14.35;;;6.50;81.60;;;;;;9165455;19;20017;-73
2023/10/18 07:06:44;;;;;;;30.40;13.73;;;6.60;82.30;;;;;;9163998;19;20014;-74
2023/10/18 07:09:53;;;;;;;26.95;14.70;;;6.60;82.60;;;;;;9162118;19;20041;-72
2023/10/18 07:13:02;;;;;;;27.52;14.15;;;6.60;82.10;;;;;;9159821;19;20112;-75
2023/10/18 07:16:16;;;;;;;27.60;14.82;;;6.60;82.20;;;;;;9162987;19;20017;-77
2023/10/18 07:19:29;;;;;;;38.60;14.52;;;6.70;82.30;;;;;;9162637;19;20014;-71
2023/10/18 07:22:44;;;;;;;27.58;13.63;;;6.70;82.30;;;;;;9163415;19;20019;-76
2023/10/18 07:25:51;;;;;;;25.67;13.80;;;6.70;82.80;;;;;;9162101;19;20023;-71
2023/10/18 07:29:15;;;;;;;26.95;14.07;;;6.70;82.40;;;;;;9163069;19;20021;-71
2023/10/18 07:32:23;;;;;;;31.52;14.50;;;6.70;82.30;;;;;;9163608;19;20599;-72
2023/10/18 07:35:34;;;;;;;29.80;14.65;;;6.70;82.50;;;;;;9171247;19;20636;-70
2023/10/18 07:38:47;;;;;;;29.58;14.00;;;6.60;82.70;;;;;;9172746;19;20464;-73
2023/10/18 07:41:55;;;;;;;25.25;13.77;;;6.80;83.30;;;;;;9170662;19;20357;-73
2023/10/18 07:45:04;;;;;;;23.90;13.10;;;6.90;83.70;;;;;;9171870;19;20043;-71
2023/10/18 07:48:16;;;;;;;26.75;12.65;;;6.90;83.40;;;;;;9174225;19;20016;-70
2023/10/18 07:51:26;;;;;;;28.30;12.88;;;6.90;83.90;;;;;;9169372;19;20499;-73
2023/10/18 07:54:35;;;;;;;28.92;13.77;;;7.00;83.70;;;;;;9171416;19;20070;-73
2023/10/18 07:57:46;;;;;;;25.83;13.10;;;7.00;84.40;;;;;;9167250;19;20567;-70
2023/10/18 08:01:12;;;;;;;29.13;13.30;;;7.10;84.60;;;;;;9172766;19;20059;-71
2023/10/18 08:04:22;;;;;;;26.67;13.88;;;7.10;84.70;;;;;;9167120;19;20021;-74
2023/10/18 08:07:30;;;;;;;24.65;13.23;;;7.20;85.40;;;;;;9165170;19;20022;-70
2023/10/18 08:10:39;;;;;;;23.17;12.13;;;7.10;85.80;;;;;;9167000;19;20026;-74
2023/10/18 08:13:47;;;;;;;23.17;12.38;;;7.20;86.90;;;;;;9167940;19;20094;-70
2023/10/18 08:16:56;;;;;;;20.98;12.10;;;7.20;88.40;;;;;;9168226;19;20086;-71
2023/10/18 08:20:40;;;;;;;24.00;12.75;;;5.20;83.50;;;;;;9169274;19;20014;-73
2023/10/18 08:23:46;;;;;;;24.67;13.05;;;7.20;83.30;;;;;;9170722;19;20412;-72
2023/10/18 08:26:59;;;;;;;25.30;11.93;;;7.30;83.70;;;;;;9171673;19;20014;-73
2023/10/18 08:30:22;;;;;;;25.45;12.20;;;7.50;83.90;;;;;;9170069;19;20428;-72
2023/10/18 08:33:30;;;;;;;22.60;11.93;;;7.30;80.70;;;;;;9170389;19;20029;-73
2023/10/18 08:36:38;;;;;;;22.00;11.85;;;7.40;80.80;;;;;;9169539;19;20015;-73
2023/10/18 08:39:53;;;;;;;22.05;10.90;;;7.40;80.80;;;;;;9166218;19;20014;-72
2023/10/18 08:43:06;;;;;;;22.33;12.10;;;7.50;80.80;;;;;;9165726;19;20805;-70
2023/10/18 08:46:14;;;;;;;22.02;12.10;;;7.50;80.80;;;;;;9167722;19;20763;-74
2023/10/18 08:49:22;;;;;;;22.77;11.57;;;7.60;80.80;;;;;;9167762;19;20019;-73
2023/10/18 08:52:35;;;;;;;21.63;11.27;;;7.70;80.90;;;;;;9164192;19;20023;-73
2023/10/18 08:55:51;;;;;;;22.50;11.48;;;7.80;80.90;;;;;;9166402;19;20521;-72
2023/10/18 08:59:05;;;;;;;23.75;11.88;;;7.80;80.80;;;;;;9170593;19;20030;-72
2023/10/18 09:02:17;;;;;;;20.50;10.65;;;7.90;80.90;;;;;;9169813;19;20098;-73
2023/10/18 09:05:25;;;;;;;23.50;11.23;;;8.00;80.80;;;;;;9169174;19;20017;-74
2023/10/18 09:08:36;;;;;;;25.13;12.50;;;8.00;80.80;;;;;;9162919;19;20078;-70
2023/10/18 09:11:47;;;;;;;23.50;12.13;;;8.10;80.90;;;;;;9163076;19;20006;-73
2023/10/18 09:14:54;;;;;;;18.95;10.63;;;8.20;80.80;;;;;;9163520;19;20540;-73
2023/10/18 09:18:04;;;;;;;19.63;11.07;;;8.20;80.80;;;;;;9166674;19;20014;-70
2023/10/18 09:21:17;;;;;;;16.92;10.45;;;8.40;80.90;;;;;;9165486;19;20018;-71
2023/10/18 09:24:31;;;;;;;18.20;10.25;;;8.40;80.80;;;;;;9167451;19;20162;-70
2023/10/18 09:27:38;;;;;;;22.25;10.57;;;8.50;80.80;;;;;;9165737;19;20019;-71
2023/10/18 09:30:45;;;;;;;19.25;9.93;;;8.60;80.80;;;;;;9162426;19;20011;-73
2023/10/18 09:33:56;;;;;;;17.70;9.48;;;8.70;80.80;;;;;;9163378;19;20019;-72
2023/10/18 09:37:11;;;;;;;18.95;9.52;;;8.70;80.70;;;;;;9160539;19;20019;-73
2023/10/18 09:40:21;;;;;;;18.45;10.00;;;8.80;80.60;;;;;;9162950;19;20019;-71
2023/10/18 09:43:28;;;;;;;19.92;10.90;;;8.90;80.60;;;;;;9159833;19;20018;-73
2023/10/18 09:46:35;;;;;;;16.73;9.30;;;9.00;80.60;;;;;;9161264;19;20360;-71
2023/10/18 09:49:44;;;;;;;18.67;9.48;;;9.10;80.60;;;;;;9163230;19;20764;-71
2023/10/18 09:52:56;;;;;;;23.00;10.18;;;9.20;80.60;;;;;;9161479;19;20015;-71
2023/10/18 09:56:07;;;;;;;17.27;9.45;;;9.30;80.70;;;;;;9162425;19;20017;-76
2023/10/18 09:59:16;;;;;;;17.30;9.30;;;9.40;80.60;;;;;;9160080;19;20015;-71
2023/10/18 10:02:24;;;;;;;18.88;8.50;;;9.50;80.50;;;;;;9160392;19;20119;-73
2023/10/18 10:05:41;;;;;;;16.95;9.38;;;9.60;80.50;;;;;;9157993;19;20459;-71
2023/10/18 10:08:51;;;;;;;12.02;7.80;;;9.70;80.40;;;;;;9160263;19;20018;-74
2023/10/18 10:12:00;;;;;;;15.27;8.35;;;9.80;80.40;;;;;;9162017;19;20037;-69
2023/10/18 10:15:13;;;;;;;14.13;8.63;;;9.90;80.30;;;;;;9161656;19;20360;-72
2023/10/18 10:18:21;;;;;;;17.17;8.98;;;10.00;80.20;;;;;;9160929;19;20011;-73
2023/10/18 10:21:29;;;;;;;15.80;7.95;;;10.10;80.20;;;;;;9161654;19;20014;-74
2023/10/18 10:24:42;;;;;;;13.55;8.38;;;10.20;80.10;;;;;;9160948;19;20018;-76
2023/10/18 10:27:59;;;;;;;13.75;8.00;;;10.40;80.20;;;;;;9163671;19;20014;-71
2023/10/18 10:31:05;;;;;;;13.60;7.72;;;10.50;80.20;;;;;;9159096;19;20018;-71
2023/10/18 10:34:19;;;;;;;19.75;8.13;;;10.60;80.00;;;;;;9164011;19;20018;-76
2023/10/18 10:37:35;;;;;;;15.73;7.70;;;10.60;79.80;;;;;;9163864;19;20093;-73
2023/10/18 10:40:48;;;;;;;14.68;7.90;;;10.70;79.80;;;;;;9164049;19;20010;-74
2023/10/18 10:44:22;;;;;;;16.52;7.60;;;10.80;79.80;;;;;;9162373;19;20360;-72
2023/10/18 10:47:42;;;;;;;20.00;7.75;;;10.90;79.70;;;;;;9161793;19;20081;-74
2023/10/18 10:50:50;;;;;;;22.90;7.93;;;11.00;79.60;;;;;;9163520;19;20026;-72
2023/10/18 10:54:01;;;;;;;13.18;7.72;;;11.10;79.70;;;;;;9165521;19;20030;-73
2023/10/18 10:57:09;;;;;;;13.73;7.70;;;11.20;79.80;;;;;;9168885;19;20796;-71
2023/10/18 11:03:53;;;;;;;10.77;7.05;;;11.40;80.70;;;;;;9171755;19;20027;-72
2023/10/18 11:07:24;;;;;;;15.88;8.05;;;11.60;82.10;;;;;;9163659;19;20011;-73
2023/10/18 11:10:30;;;;;;;15.32;6.88;;;11.60;79.80;;;;;;9166160;19;20375;-74
2023/10/18 11:13:41;;;;;;;14.10;7.22;;;11.80;80.50;;;;;;9163787;19;20030;-73
2023/10/18 11:16:53;;;;;;;13.95;7.32;;;11.80;79.30;;;;;;9164684;19;20038;-76
2023/10/18 11:20:12;;;;;;;13.77;6.65;;;11.90;79.40;;;;;;9158963;19;20315;-76
2023/10/18 11:23:20;;;;;;;11.00;6.60;;;12.00;79.10;;;;;;9159579;19;20018;-74
2023/10/18 11:26:28;;;;;;;13.05;6.47;;;12.00;78.80;;;;;;9159306;19;20050;-74
2023/10/18 11:29:33;;;;;;;12.80;6.47;;;12.10;78.70;;;;;;9161167;19;20078;-74
2023/10/18 11:32:46;;;;;;;15.65;7.40;;;12.20;78.60;;;;;;9161480;19;20019;-72
2023/10/18 11:35:54;;;;;;;12.75;7.28;;;12.30;78.50;;;;;;9164303;19;20014;-75
2023/10/18 11:39:21;;;;;;;10.73;6.38;;;12.40;78.40;;;;;;9164070;19;20021;-74
2023/10/18 11:42:29;;;;;;;13.77;7.03;;;12.40;78.40;;;;;;9158564;19;20048;-71
2023/10/18 11:45:38;;;;;;;12.55;6.25;;;12.50;78.20;;;;;;9163737;19;20033;-74
2023/10/18 11:48:47;;;;;;;12.02;7.45;;;12.60;78.20;;;;;;9164326;19;20027;-76
2023/10/18 11:51:54;;;;;;;12.10;6.03;;;12.70;78.10;;;;;;9161566;19;20019;-75
2023/10/18 11:55:09;;;;;;;11.48;5.78;;;12.70;78.10;;;;;;9162144;19;20029;-73
2023/10/18 11:58:17;;;;;;;11.10;6.32;;;12.80;77.90;;;;;;9162086;19;20025;-75
2023/10/18 12:01:31;;;;;;;9.70;5.88;;;12.90;77.80;;;;;;9163688;19;20025;-76
2023/10/18 12:04:44;;;;;;;13.82;5.60;;;13.00;77.60;;;;;;9163668;19;20350;-74
2023/10/18 12:07:53;;;;;;;9.23;5.20;;;13.10;77.50;;;;;;9161241;19;20022;-73
2023/10/18 12:11:03;;;;;;;9.07;5.75;;;13.10;77.30;;;;;;9161447;19;20099;-75
2023/10/18 12:14:09;;;;;;;11.85;6.03;;;13.20;77.20;;;;;;9160858;19;20014;-71
2023/10/18 12:17:17;;;;;;;13.85;6.60;;;13.30;77.20;;;;;;9161579;19;20010;-75
2023/10/18 12:20:34;;;;;;;12.10;5.80;;;13.30;77.00;;;;;;9166243;19;20022;-74
2023/10/18 12:23:42;;;;;;;11.13;5.28;;;13.30;76.80;;;;;;9172155;19;20010;-73
2023/10/18 12:26:48;;;;;;;12.40;5.22;;;13.40;76.90;;;;;;9170655;19;20018;-75
2023/10/18 12:29:59;;;;;;;11.93;6.03;;;13.40;76.80;;;;;;9171846;19;20021;-75
2023/10/18 12:33:14;;;;;;;12.00;5.72;;;13.40;76.70;;;;;;9168428;19;20029;-75
2023/10/18 12:36:32;;;;;;;9.25;4.93;;;13.40;76.70;;;;;;9173314;19;20643;-75
2023/10/18 12:39:37;;;;;;;8.70;5.30;;;13.50;76.60;;;;;;9169375;19;20018;-73
2023/10/18 12:42:46;;;;;;;8.52;5.32;;;13.50;76.50;;;;;;9166146;19;20010;-74
2023/10/18 12:45:53;;;;;;;10.55;4.32;;;13.50;76.50;;;;;;9170698;19;20052;-72
2023/10/18 12:49:01;;;;;;;9.40;4.15;;;13.50;76.40;;;;;;9168568;19;20011;-72
2023/10/18 12:52:41;;;;;;;8.52;4.22;;;13.50;76.60;;;;;;9168762;19;20018;-71
2023/10/18 12:55:57;;;;;;;8.32;4.53;;;13.60;77.40;;;;;;9169272;19;20019;-76
2023/10/18 12:59:22;;;;;;;8.07;4.22;;;13.50;76.00;;;;;;9170143;19;20503;-74
2023/10/18 13:02:51;;;;;;;10.18;4.05;;;13.50;75.80;;;;;;9170021;19;20814;-76
2023/10/18 13:05:57;;;;;;;7.30;4.03;;;13.50;75.70;;;;;;9168919;19;20021;-72
2023/10/18 13:09:18;;;;;;;34.72;5.07;;;13.50;75.60;;;;;;9166676;19;20014;-71
2023/10/18 13:12:25;;;;;;;7.07;4.00;;;13.50;75.40;;;;;;9167631;19;20048;-74
2023/10/18 13:15:33;;;;;;;6.32;3.83;;;13.50;75.40;;;;;;9167405;19;20015;-70
2023/10/18 13:18:39;;;;;;;8.25;4.30;;;13.50;75.30;;;;;;9168489;19;20047;-76
2023/10/18 13:21:47;;;;;;;10.68;5.40;;;13.50;75.30;;;;;;9169245;19;20662;-77
2023/10/18 13:24:55;;;;;;;9.02;5.35;;;13.50;75.20;;;;;;9170368;19;20022;-74
2023/10/18 13:28:06;;;;;;;10.43;5.22;;;13.50;75.10;;;;;;9171023;19;20021;-74
2023/10/18 13:31:18;;;;;;;9.40;5.22;;;13.50;75.10;;;;;;9167509;19;20019;-75
2023/10/18 13:34:32;;;;;;;9.30;5.38;;;13.50;75.00;;;;;;9167057;19;20017;-73
2023/10/18 13:37:38;;;;;;;8.00;5.32;;;13.50;74.90;;;;;;9168646;19;20023;-74
2023/10/18 13:40:48;;;;;;;12.07;5.63;;;13.50;74.90;;;;;;9169045;19;20010;-74
2023/10/18 13:43:54;;;;;;;10.02;4.95;;;13.50;74.80;;;;;;9163615;19;20570;-73
2023/10/18 13:47:02;;;;;;;10.93;5.10;;;13.50;74.70;;;;;;9166854;19;20602;-76
2023/10/18 13:50:12;;;;;;;11.73;4.95;;;13.40;74.80;;;;;;9166656;19;20433;-71
2023/10/18 13:53:23;;;;;;;8.77;4.78;;;13.40;74.50;;;;;;9166831;19;20018;-76
2023/10/18 13:56:34;;;;;;;12.07;4.32;;;13.40;74.50;;;;;;9164629;19;20035;-75
2023/10/18 13:59:41;;;;;;;8.25;4.13;;;13.40;74.50;;;;;;9167947;19;20060;-73
2023/10/18 14:02:49;;;;;;;10.45;4.25;;;13.40;75.20;;;;;;9167057;19;20018;-75
2023/10/18 14:05:57;;;;;;;13.55;4.95;;;13.40;74.60;;;;;;9163336;19;20007;-74
2023/10/18 14:09:04;;;;;;;7.35;4.45;;;13.50;74.50;;;;;;9164049;19;20015;-74
2023/10/18 14:12:14;;;;;;;9.05;5.13;;;13.40;74.40;;;;;;9169356;19;20021;-75
2023/10/18 14:15:20;;;;;;;16.52;4.65;;;13.40;74.40;;;;;;9170037;19;20030;-74
2023/10/18 14:18:28;;;;;;;10.77;4.55;;;13.40;74.60;;;;;;9172120;19;20640;-74
2023/10/18 14:21:38;;;;;;;8.27;4.40;;;13.40;74.20;;;;;;9170622;19;20082;-73
2023/10/18 14:24:45;;;;;;;8.52;4.80;;;13.40;74.10;;;;;;9167227;19;20048;-76
2023/10/18 14:27:56;;;;;;;6.53;4.38;;;13.40;74.20;;;;;;9166952;19;20022;-71
2023/10/18 14:31:03;;;;;;;9.13;5.07;;;13.40;73.80;;;;;;9166797;19;20019;-74
2023/10/18 14:34:09;;;;;;;7.55;4.22;;;13.40;73.80;;;;;;9166972;19;20052;-74
2023/10/18 14:37:22;;;;;;;7.40;4.78;;;13.40;73.80;;;;;;9166777;19;20018;-76
2023/10/18 14:40:34;;;;;;;10.07;4.60;;;13.30;73.70;;;;;;9166372;19;20425;-76
2023/10/18 14:43:50;;;;;;;9.63;4.65;;;13.40;73.70;;;;;;9161414;19;20658;-72
2023/10/18 14:46:56;;;;;;;8.35;4.38;;;13.40;73.40;;;;;;9165505;19;20093;-72
2023/10/18 14:50:06;;;;;;;8.32;4.60;;;13.30;73.40;;;;;;9165778;19;20022;-75
2023/10/18 14:53:13;;;;;;;7.55;4.32;;;13.30;73.30;;;;;;9167360;19;20070;-73
2023/10/18 14:56:22;;;;;;;6.35;3.70;;;13.20;73.30;;;;;;9164897;19;20006;-74
2023/10/18 14:59:32;;;;;;;8.55;3.90;;;13.20;73.20;;;;;;9164956;19;20593;-74
2023/10/18 15:02:40;;;;;;;10.55;4.38;;;13.20;73.10;;;;;;9165261;19;20484;-71
2023/10/18 15:05:46;;;;;;;10.80;3.83;;;13.10;73.00;;;;;;9163000;19;20019;-73
2023/10/18 15:08:57;;;;;;;9.15;4.45;;;13.10;73.10;;;;;;9160245;19;20014;-73
2023/10/18 15:12:04;;;;;;;9.25;4.35;;;13.10;73.00;;;;;;9162069;19;20023;-71
2023/10/18 15:15:16;;;;;;;7.18;4.47;;;13.10;73.00;;;;;;9160096;19;20007;-75
2023/10/18 15:18:21;;;;;;;8.32;3.83;;;13.00;73.00;;;;;;9162150;19;20488;-73
2023/10/18 15:21:31;;;;;;;12.18;4.40;;;13.10;74.20;;;;;;9163835;19;20471;-75
2023/10/18 15:24:40;;;;;;;10.27;4.72;;;13.00;73.10;;;;;;9162191;19;20051;-74
2023/10/18 15:27:48;;;;;;;8.40;4.90;;;12.90;73.00;;;;;;9162918;19;20034;-76
2023/10/18 15:30:56;;;;;;;16.92;4.38;;;13.00;73.10;;;;;;9161317;19;20050;-73
2023/10/18 15:34:04;;;;;;;9.07;4.78;;;12.90;73.10;;;;;;9159468;19;20014;-73
2023/10/18 15:37:11;;;;;;;14.40;4.65;;;12.90;73.10;;;;;;9159593;19;20014;-76
2023/10/18 15:40:20;;;;;;;8.23;5.10;;;12.90;73.20;;;;;;9158292;19;20007;-76
2023/10/18 15:43:27;;;;;;;11.60;4.93;;;12.90;73.30;;;;;;9155584;19;20018;-76
2023/10/18 15:46:38;;;;;;;7.78;4.53;;;12.80;73.20;;;;;;9161620;19;20026;-70
2023/10/18 15:49:45;;;;;;;8.65;4.97;;;12.80;73.30;;;;;;9160507;19;20824;-75
2023/10/18 15:52:53;;;;;;;10.68;5.45;;;12.80;73.60;;;;;;9160488;19;20025;-73
2023/10/18 15:55:59;;;;;;;9.75;5.20;;;12.80;73.30;;;;;;9166953;19;20019;-71
2023/10/18 15:59:08;;;;;;;11.55;5.00;;;12.70;73.40;;;;;;9172169;19;20011;-77
2023/10/18 16:02:16;;;;;;;16.88;6.93;;;12.70;73.40;;;;;;9168504;19;20019;-73
2023/10/18 16:05:27;;;;;;;11.18;5.18;;;12.60;73.40;;;;;;9170168;19;20025;-73
2023/10/18 16:08:32;;;;;;;13.02;4.95;;;12.60;73.40;;;;;;9166899;19;20090;-74
2023/10/18 16:11:42;;;;;;;13.10;5.57;;;12.60;73.50;;;;;;9169891;19;20011;-77
2023/10/18 16:14:48;;;;;;;11.30;5.57;;;12.50;73.40;;;;;;9161761;19;20773;-69
2023/10/18 16:17:58;;;;;;;10.18;5.40;;;12.50;73.50;;;;;;9165507;19;20018;-72
2023/10/18 16:21:04;;;;;;;17.25;6.05;;;12.40;73.40;;;;;;9165763;19;20086;-71
2023/10/18 16:24:12;;;;;;;10.30;6.03;;;12.40;73.50;;;;;;9162713;19;20019;-70